createdAt,value
2022-08-10T00:01:53.083Z,90.40
2022-08-10T00:04:23.173Z,91.10
2022-08-10T00:06:54.934Z,91.60
2022-08-10T00:09:23.682Z,92.00
2022-08-10T00:11:51.123Z,92.50
2022-08-10T00:14:19.041Z,92.60
2022-08-10T00:16:46.762Z,92.70
2022-08-10T00:19:17.235Z,92.70
2022-08-10T00:21:47.214Z,92.80
2022-08-10T00:24:14.717Z,92.70
2022-08-10T00:27:58.958Z,92.50
2022-08-10T00:29:30.292Z,92.20
2022-08-10T00:31:59.494Z,91.80
2022-08-10T00:34:32.022Z,89.90
2022-08-10T00:37:00.233Z,88.00
2022-08-10T00:39:28.965Z,87.50
2022-08-10T00:42:01.903Z,85.40
2022-08-10T00:44:40.137Z,84.40
2022-08-10T00:47:21.294Z,83.20
2022-08-10T00:49:56.602Z,80.80
2022-08-10T00:52:25.261Z,79.80
2022-08-10T00:54:53.213Z,78.40
2022-08-10T00:57:21.218Z,78.00
2022-08-10T00:59:59.006Z,76.80
2022-08-10T01:02:32.944Z,76.20
2022-08-10T01:05:03.047Z,76.10
2022-08-10T01:07:49.437Z,75.30
2022-08-10T01:10:26.060Z,75.70
2022-08-10T01:13:43.831Z,74.60
2022-08-10T01:16:38.476Z,75.60
2022-08-10T01:19:34.545Z,75.30
2022-08-10T01:22:36.914Z,74.80
2022-08-10T01:25:04.535Z,75.10
2022-08-10T01:27:37.262Z,75.10
2022-08-10T01:30:09.857Z,74.80
2022-08-10T01:32:57.160Z,73.30
2022-08-10T01:35:50.309Z,73.50
2022-08-10T01:38:24.602Z,73.60
2022-08-10T01:41:02.202Z,73.40
2022-08-10T01:43:31.866Z,75.20
2022-08-10T01:46:03.506Z,74.20
2022-08-10T01:48:34.516Z,73.70
2022-08-10T01:51:20.297Z,73.70
2022-08-10T01:53:56.141Z,71.70
2022-08-10T01:56:26.381Z,71.90
2022-08-10T01:58:59.171Z,72.40
2022-08-10T02:01:29.937Z,71.40
2022-08-10T02:04:04.706Z,71.80
2022-08-10T02:06:38.493Z,71.30
2022-08-10T02:09:07.987Z,71.90
2022-08-10T02:12:05.276Z,72.90
2022-08-10T02:14:34.777Z,73.50
2022-08-10T02:17:06.310Z,73.00
2022-08-10T02:19:36.553Z,73.00
2022-08-10T02:22:36.359Z,72.60
2022-08-10T02:24:56.129Z,72.40
2022-08-10T02:27:25.519Z,72.50
2022-08-10T02:29:54.734Z,74.10
2022-08-10T02:32:37.776Z,72.60
2022-08-10T02:35:21.731Z,73.60
2022-08-10T02:37:53.303Z,72.70
2022-08-10T02:45:01.236Z,73.60
2022-08-10T02:45:23.641Z,75.20
2022-08-10T02:46:12.425Z,73.10
2022-08-10T02:48:45.251Z,72.60
2022-08-10T02:51:20.088Z,73.40
2022-08-10T02:54:13.524Z,72.50
2022-08-10T02:56:50.554Z,71.90
2022-08-10T02:59:27.938Z,72.30
2022-08-10T03:02:12.154Z,72.10
2022-08-10T03:04:55.543Z,71.50
2022-08-10T03:07:43.535Z,71.80
2022-08-10T03:10:41.186Z,71.60
2022-08-10T03:13:10.840Z,71.30
2022-08-10T03:15:40.165Z,71.60
2022-08-10T03:18:09.656Z,71.60
2022-08-10T03:20:40.663Z,71.60
2022-08-10T03:23:17.484Z,71.80
2022-08-10T03:25:53.369Z,71.50
2022-08-10T03:28:32.697Z,71.30
2022-08-10T03:31:01.819Z,70.80
2022-08-10T03:33:35.510Z,71.20
2022-08-10T03:36:40.225Z,71.40
2022-08-10T03:38:54.346Z,71.90
2022-08-10T03:41:41.703Z,72.10
2022-08-10T03:44:25.626Z,71.70
2022-08-10T03:46:54.403Z,71.70
2022-08-10T03:49:22.146Z,72.40
2022-08-10T03:51:51.483Z,72.00
2022-08-10T03:54:19.456Z,72.40
2022-08-10T03:56:47.768Z,72.00
2022-08-10T03:59:16.802Z,72.20
2022-08-10T04:02:52.005Z,72.20
2022-08-10T04:04:33.807Z,73.20
2022-08-10T04:07:02.922Z,72.50
2022-08-10T04:09:54.142Z,73.10
2022-08-10T04:12:23.996Z,72.40
2022-08-10T04:14:53.342Z,72.10
2022-08-10T04:18:03.658Z,72.10
2022-08-10T04:20:37.576Z,73.00
2022-08-10T04:23:12.228Z,73.50
2022-08-10T04:25:40.940Z,73.10
2022-08-10T04:28:09.769Z,73.20
2022-08-10T04:30:38.405Z,73.30
2022-08-10T04:33:08.062Z,73.30
2022-08-10T04:35:37.141Z,73.30
2022-08-10T04:38:05.732Z,73.50
2022-08-10T04:40:33.202Z,74.30
2022-08-10T04:43:11.739Z,74.20
2022-08-10T04:45:48.396Z,73.90
2022-08-10T04:48:43.403Z,73.50
2022-08-10T04:51:11.249Z,73.60
2022-08-10T04:54:05.722Z,73.30
2022-08-10T04:56:39.319Z,73.10
2022-08-10T04:59:09.308Z,74.40
2022-08-10T05:02:22.664Z,73.50
2022-08-10T05:04:36.588Z,73.00
2022-08-10T05:07:16.816Z,73.60
2022-08-10T05:10:02.996Z,73.30
2022-08-10T05:12:36.390Z,73.00
2022-08-10T05:15:12.313Z,73.10
2022-08-10T05:17:41.142Z,73.30
2022-08-10T05:20:28.862Z,73.50
2022-08-10T05:22:56.274Z,73.20
2022-08-10T05:25:23.660Z,73.30
2022-08-10T05:27:52.386Z,73.20
2022-08-10T05:30:22.258Z,72.90
2022-08-10T05:32:59.157Z,73.80
2022-08-10T05:35:39.045Z,73.70
2022-08-10T05:38:19.186Z,73.50
2022-08-10T05:40:48.458Z,73.10
2022-08-10T05:43:21.335Z,73.50
2022-08-10T05:46:19.145Z,73.80
2022-08-10T05:48:58.147Z,73.70
2022-08-10T05:51:26.033Z,74.70
2022-08-10T05:54:02.031Z,74.30
2022-08-10T05:56:56.808Z,74.80
2022-08-10T06:00:33.384Z,74.60
2022-08-10T06:02:35.337Z,74.90
2022-08-10T06:05:15.789Z,74.90
2022-08-10T06:07:49.119Z,76.00
2022-08-10T06:10:30.999Z,76.00
2022-08-10T06:13:30.719Z,76.20
2022-08-10T06:16:07.644Z,76.00
2022-08-10T06:18:37.115Z,75.10
2022-08-10T06:21:05.999Z,75.70
2022-08-10T06:23:34.578Z,75.00
2022-08-10T06:26:10.721Z,75.40
2022-08-10T06:29:08.036Z,75.80
2022-08-10T06:31:47.931Z,74.50
2022-08-10T06:34:30.481Z,73.60
2022-08-10T06:37:00.057Z,72.80
2022-08-10T06:39:36.321Z,71.60
2022-08-10T06:42:18.027Z,71.70
2022-08-10T06:44:59.281Z,73.10
2022-08-10T06:47:41.494Z,71.20
2022-08-10T06:50:17.499Z,71.90
2022-08-10T06:53:13.995Z,72.30
2022-08-10T06:55:55.639Z,71.10
2022-08-10T06:58:32.236Z,71.10
2022-08-10T07:01:03.072Z,71.70
2022-08-10T07:03:41.691Z,69.80
2022-08-10T07:06:13.315Z,69.20
2022-08-10T07:08:42.172Z,69.70
2022-08-10T07:11:12.208Z,69.40
2022-08-10T07:14:14.146Z,69.70
2022-08-10T07:16:29.992Z,70.60
2022-08-10T07:18:59.012Z,70.40
2022-08-10T07:21:28.419Z,70.00
2022-08-10T07:24:00.827Z,70.00
2022-08-10T07:26:31.207Z,68.70
2022-08-10T07:28:59.475Z,67.10
2022-08-10T07:31:35.421Z,67.80
2022-08-10T07:34:21.717Z,69.10
2022-08-10T07:37:02.097Z,67.20
2022-08-10T07:40:02.645Z,66.70
2022-08-10T07:42:23.130Z,66.80
2022-08-10T07:44:50.894Z,65.10
2022-08-10T07:47:54.056Z,64.50
2022-08-10T07:50:25.297Z,66.70
2022-08-10T07:52:55.443Z,65.80
2022-08-10T07:56:04.178Z,65.90
2022-08-10T07:58:12.836Z,65.10
2022-08-10T08:00:41.652Z,64.80
2022-08-10T08:03:13.384Z,64.50
2022-08-10T08:06:03.123Z,64.90
2022-08-10T08:08:30.380Z,64.70
2022-08-10T08:10:59.581Z,65.80
2022-08-10T08:13:29.320Z,64.40
2022-08-10T08:16:19.657Z,64.30
2022-08-10T08:18:54.238Z,63.20
2022-08-10T08:24:10.074Z,63.20
2022-08-10T08:24:33.592Z,63.70
2022-08-10T08:27:03.365Z,62.60
2022-08-10T08:29:35.205Z,64.40
2022-08-10T08:32:04.527Z,63.80
2022-08-10T08:34:34.517Z,63.80
2022-08-10T08:37:04.020Z,63.60
2022-08-10T08:39:33.367Z,63.50
2022-08-10T08:42:27.127Z,59.80
2022-08-10T08:45:07.805Z,59.70
2022-08-10T08:48:05.782Z,60.50
2022-08-10T08:51:03.771Z,61.50
2022-08-10T08:54:03.585Z,61.50
2022-08-10T08:56:34.046Z,61.30
2022-08-10T08:59:07.200Z,61.10
2022-08-10T09:02:12.019Z,59.40
2022-08-10T09:05:20.261Z,59.90
2022-08-10T09:08:13.277Z,59.90
2022-08-10T09:11:00.199Z,60.60
2022-08-10T09:13:48.507Z,60.20
2022-08-10T09:16:38.940Z,61.00
2022-08-10T09:19:19.794Z,61.80
2022-08-10T09:22:18.042Z,61.70
2022-08-10T09:24:50.280Z,60.00
2022-08-10T09:27:49.374Z,59.90
2022-08-10T09:30:29.567Z,58.40
2022-08-10T09:36:24.755Z,59.70
2022-08-10T09:36:25.754Z,59.30
2022-08-10T09:40:56.230Z,59.70
2022-08-10T09:42:39.776Z,57.60
2022-08-10T09:45:19.969Z,57.80
2022-08-10T09:48:17.162Z,57.40
2022-08-10T09:51:42.144Z,57.60
2022-08-10T09:54:11.907Z,57.90
2022-08-10T10:00:14.305Z,58.70
2022-08-10T10:02:52.579Z,58.10
2022-08-10T10:05:36.453Z,58.60
2022-08-10T10:08:03.861Z,56.50
2022-08-10T10:10:54.745Z,56.60
2022-08-10T10:14:03.737Z,57.10
2022-08-10T10:16:52.286Z,58.70
2022-08-10T10:19:44.627Z,57.30
2022-08-10T10:22:36.674Z,56.80
2022-08-10T10:25:19.639Z,57.10
2022-08-10T10:28:02.688Z,57.30
2022-08-10T10:30:45.883Z,57.60
2022-08-10T10:33:20.325Z,57.70
2022-08-10T10:35:49.934Z,56.40
2022-08-10T10:38:21.350Z,57.00
2022-08-10T10:41:03.822Z,56.70
2022-08-10T10:43:59.386Z,56.80
2022-08-10T10:46:44.784Z,56.40
2022-08-10T10:49:15.943Z,56.40
2022-08-10T10:52:16.433Z,56.70
2022-08-10T10:54:54.536Z,57.10
2022-08-10T10:57:59.974Z,56.40
2022-08-10T11:00:47.747Z,56.40
2022-08-10T11:03:36.712Z,56.60
2022-08-10T11:06:40.079Z,57.90
2022-08-10T11:10:06.056Z,57.20
2022-08-10T11:12:32.192Z,56.70
2022-08-10T11:15:34.881Z,55.70
2022-08-10T11:18:26.722Z,56.00
2022-08-10T11:21:24.397Z,57.60
2022-08-10T11:24:47.560Z,56.00
2022-08-10T11:27:21.668Z,55.60
2022-08-10T11:29:52.752Z,55.70
2022-08-10T11:32:29.687Z,55.20
2022-08-10T11:35:15.873Z,55.40
2022-08-10T11:38:31.469Z,55.20
2022-08-10T11:41:05.597Z,55.10
2022-08-10T11:44:04.996Z,56.20
2022-08-10T11:46:34.795Z,55.80
2022-08-10T11:49:27.161Z,55.00
2022-08-10T11:52:00.170Z,55.50
2022-08-10T11:54:30.636Z,55.10
2022-08-10T11:57:02.483Z,55.40
2022-08-10T11:59:58.346Z,55.30
2022-08-10T12:02:40.890Z,54.90
2022-08-10T12:05:51.905Z,55.10
2022-08-10T12:10:04.171Z,55.60
2022-08-10T12:11:23.735Z,55.70
2022-08-10T12:14:20.936Z,55.70
2022-08-10T12:16:59.325Z,55.00
2022-08-10T12:20:01.851Z,55.00
2022-08-10T12:22:42.042Z,55.80
2022-08-10T12:25:57.660Z,55.20
2022-08-10T12:28:33.259Z,55.90
2022-08-10T12:31:13.598Z,55.30
2022-08-10T12:34:02.764Z,54.70
2022-08-10T12:36:41.911Z,54.20
2022-08-10T12:39:29.873Z,54.40
2022-08-10T12:43:01.548Z,53.90
2022-08-10T12:45:03.464Z,54.30
2022-08-10T12:47:44.907Z,54.30
2022-08-10T12:50:34.061Z,54.80
2022-08-10T12:53:10.313Z,55.90
2022-08-10T12:55:38.870Z,55.10
2022-08-10T12:58:58.234Z,55.20
2022-08-10T13:01:15.762Z,54.40
2022-08-10T13:04:23.204Z,54.00
2022-08-10T13:06:41.624Z,54.50
2022-08-10T13:09:09.347Z,54.70
2022-08-10T13:12:34.344Z,54.80
2022-08-10T13:14:41.624Z,54.70
2022-08-10T13:17:09.816Z,54.50
2022-08-10T13:19:55.402Z,54.70
2022-08-10T13:22:28.932Z,55.50
2022-08-10T13:25:01.564Z,54.60
2022-08-10T13:28:01.273Z,54.70
2022-08-10T13:30:37.377Z,54.90
2022-08-10T13:33:09.409Z,54.10
2022-08-10T13:35:38.300Z,54.40
2022-08-10T13:38:09.261Z,54.90
2022-08-10T13:40:38.380Z,54.40
2022-08-10T13:43:07.557Z,54.70
2022-08-10T13:45:42.306Z,54.50
2022-08-10T13:48:26.452Z,54.40
2022-08-10T13:50:58.536Z,54.50
2022-08-10T13:53:31.060Z,54.70
2022-08-10T13:56:01.412Z,54.40
2022-08-10T13:58:35.930Z,55.40
2022-08-10T14:01:13.792Z,55.20
2022-08-10T14:03:44.200Z,55.00
2022-08-10T14:06:15.412Z,54.80
2022-08-10T14:08:50.323Z,54.70
2022-08-10T14:11:20.387Z,54.80
2022-08-10T14:14:02.107Z,55.40
2022-08-10T14:16:30.481Z,54.80
2022-08-10T14:19:03.299Z,55.30
2022-08-10T14:21:31.072Z,55.30
2022-08-10T14:23:58.583Z,55.00
2022-08-10T14:26:30.654Z,55.40
2022-08-10T14:29:18.852Z,54.90
2022-08-10T14:32:00.794Z,55.90
2022-08-10T14:36:14.765Z,55.50
2022-08-10T14:37:51.749Z,55.40
2022-08-10T14:40:26.073Z,55.30
2022-08-10T14:43:00.485Z,55.10
2022-08-10T14:45:41.722Z,55.50
2022-08-10T14:48:17.237Z,55.40
2022-08-10T14:50:55.105Z,55.30
2022-08-10T14:53:27.245Z,55.70
2022-08-10T14:56:06.469Z,55.90
2022-08-10T14:59:05.731Z,56.20
2022-08-10T15:02:00.992Z,56.40
2022-08-10T15:04:23.495Z,56.10
2022-08-10T15:06:54.903Z,56.00
2022-08-10T15:09:25.471Z,56.30
2022-08-10T15:12:13.274Z,56.40
2022-08-10T15:14:46.315Z,56.40
2022-08-10T15:17:26.772Z,56.10
2022-08-10T15:20:02.909Z,56.20
2022-08-10T15:22:38.481Z,56.80
2022-08-10T15:25:19.518Z,57.00
2022-08-10T15:28:13.304Z,56.30
2022-08-10T15:30:47.364Z,55.70
2022-08-10T15:34:02.332Z,55.70
2022-08-10T15:36:43.058Z,55.80
2022-08-10T15:40:21.557Z,55.90
2022-08-10T15:42:08.579Z,55.60
2022-08-10T15:44:41.841Z,55.80
2022-08-10T15:47:25.180Z,58.40
2022-08-10T15:50:04.156Z,59.60
2022-08-10T15:53:01.255Z,58.90
2022-08-10T15:55:43.844Z,58.40
2022-08-10T15:58:39.970Z,58.90
2022-08-10T16:02:13.765Z,58.10
2022-08-10T16:04:09.959Z,58.00
2022-08-10T16:07:06.158Z,57.90
2022-08-10T16:10:23.851Z,57.80
2022-08-10T16:12:59.842Z,57.50
2022-08-10T16:15:32.218Z,57.80
2022-08-10T16:18:16.580Z,58.10
2022-08-10T16:20:56.599Z,58.20
2022-08-10T16:23:31.144Z,57.40
2022-08-10T16:26:05.134Z,57.30
2022-08-10T16:28:55.147Z,57.50
2022-08-10T16:31:29.020Z,56.40
2022-08-10T16:33:59.327Z,56.70
2022-08-10T16:36:52.751Z,56.20
2022-08-10T16:39:59.252Z,57.30
2022-08-10T16:42:16.547Z,56.00
2022-08-10T16:45:00.225Z,56.30
2022-08-10T16:47:28.888Z,56.80
2022-08-10T16:50:00.183Z,56.60
2022-08-10T16:52:29.988Z,56.20
2022-08-10T16:55:17.115Z,56.20
2022-08-10T16:57:53.182Z,56.50
2022-08-10T17:00:22.815Z,56.70
2022-08-10T17:02:54.864Z,56.70
2022-08-10T17:06:03.477Z,56.60
2022-08-10T17:08:19.051Z,56.30
2022-08-10T17:10:51.909Z,56.50
2022-08-10T17:13:20.739Z,56.60
2022-08-10T17:15:58.712Z,56.40
2022-08-10T17:18:28.166Z,56.50
2022-08-10T17:21:01.226Z,56.30
2022-08-10T17:23:31.014Z,56.60
2022-08-10T17:26:05.528Z,56.00
2022-08-10T17:28:41.576Z,56.30
2022-08-10T17:31:23.464Z,56.20
2022-08-10T17:34:17.589Z,56.50
2022-08-10T17:36:51.438Z,56.80
2022-08-10T17:39:24.106Z,56.70
2022-08-10T17:41:53.385Z,56.40
2022-08-10T17:44:21.902Z,57.20
2022-08-10T17:46:50.733Z,56.80
2022-08-10T17:49:20.747Z,57.10
2022-08-10T17:51:54.229Z,56.30
2022-08-10T17:54:29.496Z,56.40
2022-08-10T17:57:00.570Z,56.40
2022-08-10T17:59:31.360Z,56.80
2022-08-10T18:02:25.203Z,56.60
2022-08-10T18:04:56.533Z,57.10
2022-08-10T18:07:32.640Z,57.20
2022-08-10T18:10:02.170Z,57.30
2022-08-10T18:12:51.168Z,56.30
2022-08-10T18:15:22.217Z,58.00
2022-08-10T18:17:58.299Z,56.60
2022-08-10T18:20:34.755Z,56.80
2022-08-10T18:23:03.549Z,56.80
2022-08-10T18:25:39.475Z,57.00
2022-08-10T18:28:12.432Z,56.70
2022-08-10T18:30:50.012Z,56.80
2022-08-10T18:33:20.736Z,57.00
2022-08-10T18:35:49.931Z,56.90
2022-08-10T18:38:19.152Z,57.40
2022-08-10T18:40:59.275Z,58.00
2022-08-10T18:44:05.494Z,58.30
2022-08-10T18:46:37.152Z,59.00
2022-08-10T18:49:14.225Z,58.60
2022-08-10T18:51:46.636Z,59.00
2022-08-10T18:54:39.562Z,59.60
2022-08-10T18:57:40.833Z,58.50
2022-08-10T19:00:20.659Z,58.60
2022-08-10T19:03:11.067Z,59.00
2022-08-10T19:05:50.346Z,59.80
2022-08-10T19:08:49.356Z,60.20
2022-08-10T19:11:42.594Z,60.10
2022-08-10T19:14:42.168Z,60.30
2022-08-10T19:17:59.133Z,61.00
2022-08-10T19:20:44.250Z,62.10
2022-08-10T19:23:22.754Z,62.90
2022-08-10T19:26:32.964Z,63.30
2022-08-10T19:29:05.243Z,64.00
2022-08-10T19:31:59.740Z,63.80
2022-08-10T19:34:39.561Z,64.70
2022-08-10T19:37:33.674Z,64.10
2022-08-10T19:40:04.333Z,64.70
2022-08-10T19:43:09.517Z,66.50
2022-08-10T19:46:02.096Z,66.50
2022-08-10T19:49:12.965Z,66.00
2022-08-10T19:51:52.455Z,64.30
2022-08-10T19:54:54.456Z,64.40
2022-08-10T19:57:40.455Z,65.10
2022-08-10T20:00:21.682Z,65.60
2022-08-10T20:03:10.662Z,65.80
2022-08-10T20:06:18.988Z,65.90
2022-08-10T20:08:50.644Z,66.10
2022-08-10T20:11:46.540Z,66.10
2022-08-10T20:14:29.057Z,66.50
2022-08-10T20:17:03.910Z,65.70
2022-08-10T20:19:52.713Z,67.70
2022-08-10T20:22:33.851Z,67.30
2022-08-10T20:25:14.106Z,67.30
2022-08-10T20:28:03.329Z,68.60
2022-08-10T20:30:34.641Z,68.30
2022-08-10T20:33:26.331Z,67.90
2022-08-10T20:36:05.395Z,67.80
2022-08-10T20:39:07.920Z,67.90
2022-08-10T20:42:03.384Z,68.10
2022-08-10T20:45:01.394Z,67.90
2022-08-10T20:47:53.669Z,68.00
2022-08-10T20:50:42.384Z,68.20
2022-08-10T20:53:14.399Z,68.20
2022-08-10T20:55:53.440Z,68.00
2022-08-10T20:59:00.764Z,67.90
2022-08-10T21:02:07.420Z,68.30
2022-08-10T21:04:55.421Z,68.40
2022-08-10T21:08:00.550Z,68.00
2022-08-10T21:10:37.805Z,68.20
2022-08-10T21:13:20.929Z,68.00
2022-08-10T21:16:03.822Z,67.90
2022-08-10T21:18:44.015Z,68.30
2022-08-10T21:21:37.768Z,68.70
2022-08-10T21:24:15.114Z,68.20
2022-08-10T21:26:45.187Z,68.70
2022-08-10T21:29:56.404Z,69.00
2022-08-10T21:32:40.481Z,69.20
2022-08-10T21:35:37.406Z,68.80
2022-08-10T21:38:28.478Z,68.90
2022-08-10T21:41:56.748Z,69.50
2022-08-10T21:44:49.352Z,69.50
2022-08-10T21:48:07.479Z,69.70
2022-08-10T21:51:24.548Z,70.10
2022-08-10T21:54:43.008Z,69.70
2022-08-10T21:57:43.769Z,69.10
2022-08-10T22:00:46.818Z,68.60
2022-08-10T22:03:39.892Z,68.20
2022-08-10T22:06:28.528Z,67.90
2022-08-10T22:09:21.295Z,67.40
2022-08-10T22:12:25.084Z,67.40
2022-08-10T22:16:01.554Z,68.00
2022-08-10T22:18:58.787Z,68.10
2022-08-10T22:22:27.432Z,68.50
2022-08-10T22:25:31.430Z,69.20
2022-08-10T22:28:19.616Z,70.10
2022-08-10T22:31:32.286Z,70.10
2022-08-10T22:34:21.654Z,70.20
2022-08-10T22:37:31.523Z,70.30
2022-08-10T22:40:29.605Z,70.70
2022-08-10T22:43:33.533Z,71.10
2022-08-10T22:46:26.355Z,71.60
2022-08-10T22:48:59.676Z,72.30
2022-08-10T22:51:40.150Z,72.50
2022-08-10T22:54:59.487Z,72.70
2022-08-10T22:57:45.404Z,73.00
2022-08-10T23:00:30.639Z,73.50
2022-08-10T23:03:13.982Z,73.50
2022-08-10T23:05:54.312Z,73.20
2022-08-10T23:08:31.134Z,73.30
2022-08-10T23:11:08.462Z,73.30
2022-08-10T23:13:39.980Z,73.60
2022-08-10T23:16:42.795Z,73.50
2022-08-10T23:19:20.567Z,73.30
2022-08-10T23:22:04.032Z,73.50
2022-08-10T23:24:39.701Z,73.40
2022-08-10T23:27:37.629Z,73.50
2022-08-10T23:30:09.984Z,73.70
2022-08-10T23:32:43.893Z,73.60
2022-08-10T23:36:31.402Z,73.50
2022-08-10T23:38:04.774Z,73.50
2022-08-10T23:40:33.538Z,73.40
2022-08-10T23:43:02.545Z,73.70
2022-08-10T23:45:31.493Z,73.90
2022-08-10T23:48:22.912Z,73.80
2022-08-10T23:50:59.517Z,74.10
2022-08-10T23:53:37.063Z,74.20
2022-08-10T23:56:18.089Z,74.70
2022-08-10T23:58:55.902Z,74.70
